Time;durP1;ratioP1;P1;durP2;ratioP2;P2;SDS_P1;SDS_P2;PMS_P1;PMS_P2;Temp;Humidity;BMP_temperature;BMP_pressure;BME280_temperature;BME280_humidity;BME280_pressure;Samples;Min_cycle;Max_cycle;Signal;HPM_P1;HPM_P2
2023/05/09 00:01:29;;;;;;;14.02;9.40;;;14.50;99.90;;;;;;5113758;28;20051;-86
2023/05/09 00:03:57;;;;;;;15.20;9.77;;;14.40;99.90;;;;;;5114813;28;20511;-86
2023/05/09 00:06:25;;;;;;;12.88;8.85;;;14.40;99.90;;;;;;5118372;28;20036;-86
2023/05/09 00:08:55;;;;;;;12.27;8.30;;;14.30;99.90;;;;;;5157642;27;20039;-87
2023/05/09 00:11:22;;;;;;;10.15;8.30;;;14.30;99.90;;;;;;5138456;27;20130;-87
2023/05/09 00:13:49;;;;;;;13.95;8.73;;;14.30;99.90;;;;;;5155840;27;20035;-87
2023/05/09 00:16:16;;;;;;;13.43;8.27;;;14.20;99.90;;;;;;5154673;27;20391;-87
2023/05/09 00:18:43;;;;;;;13.75;7.78;;;14.20;99.90;;;;;;5172373;27;20035;-86
2023/05/09 00:21:10;;;;;;;12.25;8.43;;;14.10;99.90;;;;;;5117978;28;20034;-86
2023/05/09 00:23:37;;;;;;;12.77;8.68;;;14.10;99.90;;;;;;5134911;28;20031;-86
2023/05/09 00:26:04;;;;;;;11.02;8.27;;;14.10;99.90;;;;;;5101226;28;20091;-86
2023/05/09 00:28:31;;;;;;;10.98;8.52;;;14.10;99.90;;;;;;5101113;28;20104;-85
2023/05/09 00:30:58;;;;;;;10.82;7.90;;;14.00;99.90;;;;;;5146800;27;20066;-86
2023/05/09 00:33:25;;;;;;;14.35;8.02;;;14.00;99.90;;;;;;5120956;27;20071;-86
2023/05/09 00:35:53;;;;;;;13.60;8.13;;;14.00;99.90;;;;;;5155068;27;20091;-87
2023/05/09 00:38:21;;;;;;;11.38;7.40;;;14.00;99.90;;;;;;5154964;27;20039;-86
2023/05/09 00:40:47;;;;;;;10.18;7.65;;;13.90;99.90;;;;;;5121380;27;20126;-86
2023/05/09 00:43:15;;;;;;;12.30;7.75;;;13.90;99.90;;;;;;5121037;27;20078;-86
2023/05/09 00:45:44;;;;;;;12.65;7.72;;;13.90;99.90;;;;;;5125288;28;20126;-86
2023/05/09 00:48:10;;;;;;;10.40;7.65;;;13.80;99.90;;;;;;5133837;28;20038;-86
2023/05/09 00:50:37;;;;;;;10.18;7.47;;;13.80;99.90;;;;;;5117615;28;20487;-87
2023/05/09 00:53:04;;;;;;;12.27;8.18;;;13.80;99.90;;;;;;5117158;28;20044;-86
2023/05/09 00:55:32;;;;;;;13.60;7.70;;;13.70;99.90;;;;;;5137785;28;20035;-86
2023/05/09 00:57:58;;;;;;;10.13;7.82;;;13.70;99.90;;;;;;5150442;28;20040;-87
2023/05/09 01:00:25;;;;;;;10.93;8.00;;;13.70;99.90;;;;;;5150659;27;20032;-87
2023/05/09 01:02:54;;;;;;;13.68;8.68;;;13.60;99.90;;;;;;5150714;28;20163;-86
2023/05/09 01:05:24;;;;;;;10.82;7.95;;;13.60;99.90;;;;;;5136658;27;20031;-86
2023/05/09 01:08:12;;;;;;;10.63;8.18;;;13.60;99.90;;;;;;5154411;27;20041;-86
2023/05/09 01:10:46;;;;;;;9.98;8.20;;;13.60;99.90;;;;;;5154299;27;20035;-86
2023/05/09 01:13:19;;;;;;;11.20;7.30;;;13.50;99.90;;;;;;5154017;27;20049;-86
2023/05/09 01:15:57;;;;;;;11.77;7.43;;;13.50;99.90;;;;;;5151549;27;20035;-86
2023/05/09 01:18:48;;;;;;;10.98;7.85;;;13.50;99.90;;;;;;5133627;28;20037;-86
2023/05/09 01:21:20;;;;;;;14.38;8.13;;;13.50;99.90;;;;;;5117018;28;20031;-86
2023/05/09 01:23:58;;;;;;;10.73;7.72;;;13.50;99.90;;;;;;5134061;28;20039;-86
2023/05/09 01:26:48;;;;;;;11.88;7.85;;;13.40;99.90;;;;;;5133070;28;20043;-85
2023/05/09 01:29:20;;;;;;;11.77;7.65;;;13.50;99.90;;;;;;5132758;28;20108;-86
2023/05/09 01:31:48;;;;;;;9.57;7.20;;;13.40;99.90;;;;;;5132706;28;20487;-87
2023/05/09 01:34:16;;;;;;;12.75;7.72;;;13.40;99.90;;;;;;5133058;28;20395;-86
2023/05/09 01:36:45;;;;;;;13.77;7.15;;;13.30;99.90;;;;;;5137634;27;20039;-86
2023/05/09 01:39:12;;;;;;;10.30;7.03;;;13.30;99.90;;;;;;5154080;27;20038;-86
2023/05/09 01:41:39;;;;;;;10.00;7.28;;;13.30;99.90;;;;;;5153866;27;20039;-86
2023/05/09 01:44:10;;;;;;;10.48;7.40;;;13.30;99.90;;;;;;5136652;27;20483;-86
2023/05/09 01:46:41;;;;;;;10.55;6.93;;;13.40;99.90;;;;;;5170337;27;20046;-86
2023/05/09 01:49:09;;;;;;;10.00;7.75;;;13.40;99.90;;;;;;5137114;27;20049;-86
2023/05/09 01:51:37;;;;;;;12.23;7.05;;;13.30;99.90;;;;;;5136400;27;20066;-86
2023/05/09 01:54:05;;;;;;;11.13;7.68;;;13.30;99.90;;;;;;5153498;27;20031;-86
2023/05/09 01:56:35;;;;;;;9.80;7.45;;;13.40;99.90;;;;;;5135964;27;20043;-86
2023/05/09 01:59:03;;;;;;;9.80;6.90;;;13.40;99.90;;;;;;5153628;27;20043;-86
2023/05/09 02:01:30;;;;;;;11.55;7.30;;;13.40;99.90;;;;;;5153439;27;20043;-86
2023/05/09 02:03:58;;;;;;;10.70;7.13;;;13.40;99.90;;;;;;5136240;27;20039;-86
2023/05/09 02:06:28;;;;;;;10.93;7.13;;;13.40;99.90;;;;;;5119257;27;20039;-86
2023/05/09 02:08:56;;;;;;;13.75;7.95;;;13.40;99.90;;;;;;5152999;27;20495;-86
2023/05/09 02:11:23;;;;;;;10.25;7.30;;;13.40;99.90;;;;;;5135615;27;20046;-86
2023/05/09 02:13:49;;;;;;;11.88;7.40;;;13.40;99.90;;;;;;5118821;27;20027;-85
2023/05/09 02:16:17;;;;;;;12.85;7.47;;;13.40;99.90;;;;;;5135866;27;20035;-86
2023/05/09 02:18:43;;;;;;;11.68;8.30;;;13.40;99.90;;;;;;5118110;27;20402;-85
2023/05/09 02:21:11;;;;;;;10.68;7.47;;;13.40;99.90;;;;;;5135776;27;20122;-86
2023/05/09 02:23:37;;;;;;;11.98;7.63;;;13.50;99.90;;;;;;5118694;27;20039;-86
2023/05/09 02:26:05;;;;;;;11.93;8.18;;;13.40;99.90;;;;;;5118841;27;20035;-86
2023/05/09 02:28:32;;;;;;;11.57;7.93;;;13.50;99.90;;;;;;5135202;27;20063;-86
2023/05/09 02:31:00;;;;;;;11.10;7.63;;;13.50;99.90;;;;;;5136030;27;20031;-85
2023/05/09 02:33:29;;;;;;;12.07;7.78;;;13.50;99.90;;;;;;5169161;27;20125;-85
2023/05/09 02:35:56;;;;;;;12.82;8.25;;;13.50;99.90;;;;;;5152665;27;20048;-86
2023/05/09 02:38:23;;;;;;;12.23;7.70;;;13.50;99.90;;;;;;5135402;27;20043;-86
2023/05/09 02:40:50;;;;;;;9.85;7.43;;;13.50;99.90;;;;;;5131911;28;20093;-85
2023/05/09 02:43:17;;;;;;;12.63;8.38;;;13.50;99.90;;;;;;5132133;28;20075;-86
2023/05/09 02:45:44;;;;;;;11.52;7.90;;;13.50;99.90;;;;;;5098164;28;20093;-86
2023/05/09 02:48:10;;;;;;;12.80;7.93;;;13.50;99.90;;;;;;5131554;28;20084;-86
2023/05/09 02:50:38;;;;;;;11.63;8.27;;;13.50;99.90;;;;;;5131332;28;20103;-86
2023/05/09 02:53:05;;;;;;;13.70;8.57;;;13.50;99.90;;;;;;5098050;28;20165;-86
2023/05/09 02:55:31;;;;;;;13.23;7.95;;;13.50;99.90;;;;;;5131257;28;20122;-85
2023/05/09 02:57:58;;;;;;;12.57;8.55;;;13.50;99.90;;;;;;5114685;28;20036;-86
2023/05/09 03:00:25;;;;;;;12.43;8.32;;;13.60;99.90;;;;;;5108074;27;20045;-85
2023/05/09 03:02:51;;;;;;;13.13;8.48;;;13.50;99.90;;;;;;5118078;27;20038;-86
2023/05/09 03:05:18;;;;;;;13.35;8.82;;;13.50;99.90;;;;;;5169041;27;20035;-86
2023/05/09 03:07:50;;;;;;;12.82;8.07;;;13.60;99.90;;;;;;5117772;27;20174;-86
2023/05/09 03:10:16;;;;;;;14.80;8.75;;;13.60;99.90;;;;;;5151645;27;20047;-86
2023/05/09 03:12:43;;;;;;;12.85;8.63;;;13.50;99.90;;;;;;5109636;28;20047;-86
2023/05/09 03:15:10;;;;;;;13.30;8.55;;;13.50;99.90;;;;;;5114448;28;20051;-85
2023/05/09 03:17:37;;;;;;;12.82;9.00;;;13.50;99.90;;;;;;5114270;28;20035;-86
2023/05/09 03:20:04;;;;;;;13.75;9.45;;;13.50;99.90;;;;;;5114653;28;20108;-85
2023/05/09 03:22:31;;;;;;;12.15;8.90;;;13.50;99.90;;;;;;5114745;28;20040;-86
2023/05/09 03:24:57;;;;;;;13.13;9.25;;;13.50;99.90;;;;;;5098222;28;20047;-85
2023/05/09 03:27:25;;;;;;;14.10;9.02;;;13.50;99.90;;;;;;5097799;28;20040;-86
2023/05/09 03:29:51;;;;;;;12.65;9.30;;;13.40;99.90;;;;;;5098170;28;20035;-86
2023/05/09 03:32:18;;;;;;;15.57;9.10;;;13.50;99.90;;;;;;5100469;28;20070;-85
2023/05/09 03:34:45;;;;;;;13.48;9.50;;;13.50;99.90;;;;;;5134603;28;20039;-86
2023/05/09 03:37:12;;;;;;;13.73;9.07;;;13.50;99.90;;;;;;5117121;28;20328;-86
2023/05/09 03:39:39;;;;;;;14.45;9.60;;;13.40;99.90;;;;;;5135604;27;20046;-86
2023/05/09 03:42:06;;;;;;;13.27;9.05;;;13.40;99.90;;;;;;5121604;27;20043;-86
2023/05/09 03:44:32;;;;;;;15.93;9.75;;;13.40;99.90;;;;;;5122694;28;20048;-85
2023/05/09 03:46:59;;;;;;;13.77;9.40;;;13.40;99.90;;;;;;5101339;28;20487;-86
2023/05/09 03:49:26;;;;;;;12.98;9.88;;;13.40;99.90;;;;;;5135134;28;20048;-85
2023/05/09 03:51:52;;;;;;;16.55;9.80;;;13.40;99.90;;;;;;5100773;28;20035;-85
2023/05/09 03:54:19;;;;;;;13.82;9.70;;;13.40;99.90;;;;;;5125923;28;20093;-86
2023/05/09 03:56:46;;;;;;;14.73;9.23;;;13.40;99.90;;;;;;5117683;28;20420;-86
2023/05/09 03:59:12;;;;;;;15.80;9.23;;;13.40;99.90;;;;;;5134623;28;20407;-86
2023/05/09 04:01:40;;;;;;;14.60;9.52;;;13.40;99.90;;;;;;5117714;28;20078;-86
2023/05/09 04:04:07;;;;;;;13.90;9.57;;;13.40;99.90;;;;;;5119033;28;20035;-86
2023/05/09 04:06:35;;;;;;;18.10;9.40;;;13.40;99.90;;;;;;5101042;28;20108;-86
2023/05/09 04:09:02;;;;;;;13.50;9.40;;;13.40;99.90;;;;;;5117725;28;20043;-86
2023/05/09 04:11:28;;;;;;;14.27;9.90;;;13.40;99.90;;;;;;5118003;28;20073;-86
2023/05/09 04:13:55;;;;;;;16.45;9.95;;;13.40;99.90;;;;;;5120669;27;20455;-85
2023/05/09 04:16:22;;;;;;;13.43;9.55;;;13.40;99.90;;;;;;5138414;27;20038;-85
2023/05/09 04:18:48;;;;;;;15.10;10.15;;;13.40;99.90;;;;;;5152825;27;20126;-85
2023/05/09 04:21:15;;;;;;;13.75;9.40;;;13.40;99.90;;;;;;5138333;27;20184;-86
2023/05/09 04:23:42;;;;;;;16.00;9.65;;;13.40;99.90;;;;;;5137901;27;20039;-85
2023/05/09 04:26:11;;;;;;;14.98;9.70;;;13.40;99.90;;;;;;5104151;28;20365;-85
2023/05/09 04:28:37;;;;;;;13.30;9.43;;;13.40;99.90;;;;;;5101882;28;20128;-82
2023/05/09 04:31:05;;;;;;;12.32;9.18;;;13.40;99.90;;;;;;5117829;28;20031;-86
2023/05/09 04:33:31;;;;;;;18.55;10.05;;;13.40;99.90;;;;;;5151400;28;20035;-86
2023/05/09 04:35:58;;;;;;;14.75;10.45;;;13.40;99.90;;;;;;5134155;28;20625;-85
2023/05/09 04:38:25;;;;;;;15.30;10.18;;;13.50;99.90;;;;;;5117864;28;20544;-85
2023/05/09 04:40:51;;;;;;;15.48;10.10;;;13.50;99.90;;;;;;5100179;28;20074;-85
2023/05/09 04:43:18;;;;;;;20.58;10.88;;;13.50;99.90;;;;;;5101018;28;20495;-85
2023/05/09 04:45:45;;;;;;;16.85;11.00;;;13.50;99.90;;;;;;5117111;28;20040;-85
2023/05/09 04:48:12;;;;;;;15.27;10.75;;;13.50;99.90;;;;;;5151337;28;20083;-86
2023/05/09 04:50:40;;;;;;;14.93;11.10;;;13.60;99.90;;;;;;5116638;28;20036;-85
2023/05/09 04:53:07;;;;;;;21.90;12.20;;;13.60;99.90;;;;;;5133660;28;20043;-85
2023/05/09 04:55:34;;;;;;;17.10;11.57;;;13.60;99.90;;;;;;5100218;28;20511;-85
2023/05/09 04:58:01;;;;;;;18.08;11.02;;;13.60;99.90;;;;;;5100678;28;20031;-86
2023/05/09 05:00:28;;;;;;;17.85;11.73;;;13.60;99.90;;;;;;5133779;28;20064;-86
2023/05/09 05:02:55;;;;;;;15.13;11.35;;;13.60;99.90;;;;;;5100421;28;20036;-85
2023/05/09 05:05:22;;;;;;;18.02;12.38;;;13.70;99.90;;;;;;5100574;28;20047;-85
2023/05/09 05:07:48;;;;;;;18.67;12.45;;;13.70;99.90;;;;;;5134350;27;20039;-86
2023/05/09 05:10:15;;;;;;;17.95;12.48;;;13.70;99.90;;;;;;5120814;27;20043;-86
2023/05/09 05:12:42;;;;;;;18.10;12.40;;;13.70;99.90;;;;;;5120567;27;20049;-86
2023/05/09 05:15:09;;;;;;;17.45;11.77;;;13.70;99.90;;;;;;5137031;27;20474;-86
2023/05/09 05:17:36;;;;;;;20.95;11.65;;;13.70;99.90;;;;;;5116853;28;20041;-86
2023/05/09 05:20:05;;;;;;;17.55;11.80;;;13.70;99.90;;;;;;5119130;28;20551;-85
2023/05/09 05:22:32;;;;;;;19.98;12.85;;;13.80;99.90;;;;;;5133500;28;20048;-86
2023/05/09 05:24:58;;;;;;;17.25;12.45;;;13.80;99.90;;;;;;5149962;28;20123;-86
2023/05/09 05:27:25;;;;;;;17.27;12.40;;;13.90;99.90;;;;;;5133571;28;20042;-86
2023/05/09 05:29:52;;;;;;;18.38;12.20;;;13.90;99.90;;;;;;5142640;28;20043;-86
2023/05/09 05:32:18;;;;;;;19.85;12.88;;;13.90;99.90;;;;;;5133220;28;20046;-86
2023/05/09 05:34:45;;;;;;;17.45;12.20;;;14.00;99.90;;;;;;5116465;28;20032;-86
2023/05/09 05:37:12;;;;;;;17.08;12.73;;;14.00;99.90;;;;;;5115665;28;20116;-86
2023/05/09 05:39:38;;;;;;;25.67;13.90;;;14.10;99.90;;;;;;5123593;28;20043;-87
2023/05/09 05:42:05;;;;;;;19.13;13.07;;;14.10;99.90;;;;;;5116158;28;20062;-86
2023/05/09 05:44:32;;;;;;;18.35;12.85;;;14.20;99.90;;;;;;5133015;28;20195;-86
2023/05/09 05:46:59;;;;;;;21.65;13.77;;;14.20;99.90;;;;;;5133024;28;20510;-84
2023/05/09 05:49:25;;;;;;;18.50;13.32;;;14.20;99.90;;;;;;5148878;27;20042;-86
2023/05/09 05:51:52;;;;;;;21.42;13.68;;;14.30;99.90;;;;;;5119025;27;20134;-85
2023/05/09 05:54:19;;;;;;;21.45;13.48;;;14.30;99.90;;;;;;5135886;27;20035;-86
2023/05/09 05:56:45;;;;;;;20.02;13.88;;;14.40;99.90;;;;;;5119443;27;20118;-85
2023/05/09 05:59:12;;;;;;;19.42;13.73;;;14.40;99.90;;;;;;5115980;28;20044;-86
2023/05/09 06:01:39;;;;;;;26.63;14.65;;;14.50;99.90;;;;;;5115325;28;20086;-86
2023/05/09 06:04:06;;;;;;;21.10;13.68;;;14.50;99.90;;;;;;5132230;28;20043;-86
2023/05/09 06:06:33;;;;;;;22.52;13.93;;;14.50;99.90;;;;;;5132826;28;20502;-86
2023/05/09 06:09:00;;;;;;;19.02;13.02;;;14.60;99.90;;;;;;5115394;28;20048;-86
2023/05/09 06:11:26;;;;;;;19.05;13.50;;;14.60;99.90;;;;;;5132486;28;20046;-86
2023/05/09 06:13:53;;;;;;;20.88;13.82;;;14.60;99.90;;;;;;5115737;28;20130;-86
2023/05/09 06:16:20;;;;;;;18.80;12.90;;;14.70;99.90;;;;;;5115436;28;20449;-86
2023/05/09 06:18:47;;;;;;;18.95;13.65;;;14.70;99.90;;;;;;5132272;28;20043;-85
2023/05/09 06:21:14;;;;;;;19.98;13.50;;;14.70;99.90;;;;;;5098532;28;20035;-86
2023/05/09 06:23:40;;;;;;;17.58;13.13;;;14.70;99.90;;;;;;5115496;28;20035;-85
2023/05/09 06:26:07;;;;;;;17.38;12.90;;;14.70;99.90;;;;;;5149342;28;20426;-87
2023/05/09 06:28:34;;;;;;;19.45;13.75;;;14.70;99.90;;;;;;5098615;28;20032;-88
2023/05/09 06:31:00;;;;;;;21.13;13.48;;;14.70;99.90;;;;;;5098720;28;20042;-88
2023/05/09 06:33:27;;;;;;;18.10;12.77;;;14.80;99.90;;;;;;5115724;28;20412;-87
2023/05/09 06:35:54;;;;;;;19.42;13.40;;;14.80;99.90;;;;;;5115709;28;20506;-88
2023/05/09 06:38:21;;;;;;;22.05;13.75;;;14.70;99.90;;;;;;5115583;28;20541;-88
2023/05/09 06:40:47;;;;;;;18.23;12.88;;;14.90;99.90;;;;;;5115587;28;20039;-88
2023/05/09 06:43:14;;;;;;;16.90;12.63;;;14.80;99.90;;;;;;5098879;28;20504;-88
2023/05/09 06:45:41;;;;;;;21.95;14.07;;;14.90;99.90;;;;;;5115392;28;20039;-88
2023/05/09 06:48:07;;;;;;;16.73;12.88;;;14.90;99.90;;;;;;5149020;28;20075;-88
2023/05/09 06:50:34;;;;;;;19.45;13.32;;;15.00;99.90;;;;;;5136425;27;20505;-88
2023/05/09 06:53:00;;;;;;;21.25;13.52;;;15.00;99.90;;;;;;5114709;28;20035;-87
2023/05/09 06:55:27;;;;;;;23.38;13.20;;;15.00;99.90;;;;;;5098491;28;20088;-88
2023/05/09 06:57:54;;;;;;;18.85;13.60;;;15.10;99.90;;;;;;5115591;28;20032;-88
2023/05/09 07:00:21;;;;;;;23.70;13.60;;;15.10;99.90;;;;;;5098385;28;20132;-88
2023/05/09 07:02:48;;;;;;;17.85;13.07;;;15.10;99.90;;;;;;5117443;27;20039;-88
2023/05/09 07:05:15;;;;;;;21.27;13.50;;;15.20;99.90;;;;;;5152611;27;20035;-89
2023/05/09 07:07:41;;;;;;;19.73;14.45;;;15.20;99.90;;;;;;5135511;27;20167;-87
2023/05/09 07:10:09;;;;;;;18.60;14.20;;;15.20;99.90;;;;;;5135215;27;20452;-88
2023/05/09 07:12:35;;;;;;;20.83;14.82;;;15.30;99.90;;;;;;5152403;27;20075;-88
2023/05/09 07:15:02;;;;;;;20.70;14.00;;;15.40;99.90;;;;;;5135368;27;20080;-88
2023/05/09 07:17:29;;;;;;;19.08;13.85;;;15.50;99.90;;;;;;5135776;28;20031;-88
2023/05/09 07:19:56;;;;;;;19.55;14.48;;;15.60;99.90;;;;;;5131646;28;20031;-88
2023/05/09 07:22:22;;;;;;;18.23;13.45;;;15.70;99.90;;;;;;5114666;28;20054;-88
2023/05/09 07:24:49;;;;;;;20.67;14.73;;;15.70;99.90;;;;;;5115320;28;20046;-88
2023/05/09 07:27:16;;;;;;;20.55;13.48;;;15.70;99.90;;;;;;5151319;28;20089;-88
2023/05/09 07:29:43;;;;;;;20.95;14.13;;;15.70;99.90;;;;;;5115438;28;20491;-88
2023/05/09 07:32:09;;;;;;;26.15;14.88;;;15.80;99.90;;;;;;5130897;28;20047;-88
2023/05/09 07:34:36;;;;;;;22.90;13.73;;;15.80;99.90;;;;;;5097089;28;20423;-87
2023/05/09 07:37:03;;;;;;;19.15;13.05;;;15.80;99.90;;;;;;5114185;28;20130;-88
2023/05/09 07:39:29;;;;;;;20.25;14.77;;;15.80;99.90;;;;;;5097345;28;20039;-87
2023/05/09 07:41:56;;;;;;;20.75;14.38;;;15.80;99.90;;;;;;5110111;28;20044;-88
2023/05/09 07:44:23;;;;;;;21.25;14.02;;;15.80;99.90;;;;;;5130799;28;20035;-87
2023/05/09 07:46:50;;;;;;;21.63;14.48;;;15.70;99.90;;;;;;5097656;28;20053;-88
2023/05/09 07:49:16;;;;;;;19.98;14.82;;;15.70;99.90;;;;;;5096520;28;20051;-88
2023/05/09 07:51:43;;;;;;;20.08;14.77;;;15.70;99.90;;;;;;5097811;28;20596;-88
2023/05/09 07:54:11;;;;;;;22.15;15.00;;;15.60;99.90;;;;;;5130546;28;20626;-87
2023/05/09 07:56:37;;;;;;;25.60;15.15;;;15.60;99.90;;;;;;5130526;28;20123;-89
2023/05/09 07:59:04;;;;;;;21.58;15.95;;;15.60;99.90;;;;;;5130772;28;20063;-84
2023/05/09 08:01:31;;;;;;;23.38;15.32;;;15.50;99.90;;;;;;5129979;28;20036;-87
2023/05/09 08:03:57;;;;;;;21.85;14.85;;;15.50;99.90;;;;;;5097031;28;20092;-88
2023/05/09 08:06:25;;;;;;;19.83;14.88;;;15.50;99.90;;;;;;5097099;28;20043;-89
2023/05/09 08:08:51;;;;;;;21.13;14.88;;;15.50;99.90;;;;;;5097640;28;20032;-88
2023/05/09 08:11:18;;;;;;;24.60;16.08;;;15.50;99.90;;;;;;5113784;28;20073;-88
2023/05/09 08:13:45;;;;;;;29.05;16.10;;;15.50;99.90;;;;;;5113801;28;20122;-88
2023/05/09 08:16:16;;;;;;;23.30;15.77;;;15.50;99.90;;;;;;5113625;28;20075;-87
2023/05/09 08:18:43;;;;;;;25.05;16.52;;;15.50;99.90;;;;;;5130710;28;20048;-88
2023/05/09 08:21:10;;;;;;;22.65;15.93;;;15.50;99.90;;;;;;5113344;28;20036;-88
2023/05/09 08:23:37;;;;;;;25.13;16.33;;;15.50;99.90;;;;;;5132940;28;20092;-87
2023/05/09 08:26:03;;;;;;;28.48;17.38;;;15.70;99.90;;;;;;5136253;27;20039;-88
2023/05/09 08:28:30;;;;;;;37.03;19.33;;;15.50;99.90;;;;;;5137620;27;20093;-87
2023/05/09 08:30:57;;;;;;;36.95;20.35;;;15.50;99.90;;;;;;5137427;27;20103;-87
2023/05/09 08:33:23;;;;;;;34.78;20.02;;;15.50;99.90;;;;;;5114938;28;20039;-89
2023/05/09 08:35:51;;;;;;;33.80;19.50;;;15.50;99.90;;;;;;5100564;28;20520;-87
2023/05/09 08:38:19;;;;;;;41.53;22.48;;;15.50;99.90;;;;;;5134347;28;20077;-87
2023/05/09 08:40:45;;;;;;;37.85;22.35;;;15.50;99.90;;;;;;5146297;27;20118;-87
2023/05/09 08:43:14;;;;;;;39.72;22.67;;;15.50;99.90;;;;;;5164627;27;20131;-86
2023/05/09 08:45:47;;;;;;;40.40;23.90;;;15.50;99.90;;;;;;5134094;28;20079;-87
2023/05/09 08:48:18;;;;;;;46.80;23.98;;;15.50;99.90;;;;;;5150838;28;20089;-85
2023/05/09 08:50:44;;;;;;;39.83;22.83;;;15.50;99.90;;;;;;5133852;28;20044;-87
2023/05/09 08:53:12;;;;;;;42.40;24.00;;;15.60;99.90;;;;;;5137064;27;20571;-87
2023/05/09 08:55:39;;;;;;;43.50;24.45;;;15.70;99.90;;;;;;5147917;28;20032;-87
2023/05/09 08:58:08;;;;;;;43.60;24.20;;;15.80;99.90;;;;;;5101102;28;20146;-87
2023/05/09 09:00:37;;;;;;;42.35;23.73;;;15.90;99.90;;;;;;5151369;28;20482;-88
2023/05/09 09:03:06;;;;;;;43.38;23.48;;;16.00;99.90;;;;;;5117684;28;20051;-88
2023/05/09 09:05:36;;;;;;;42.38;22.85;;;16.10;99.90;;;;;;5133633;28;20043;-88
2023/05/09 09:08:08;;;;;;;43.45;24.50;;;16.20;99.90;;;;;;5134122;28;20484;-88
2023/05/09 09:10:38;;;;;;;42.13;22.88;;;16.30;99.90;;;;;;5133579;28;20046;-88
2023/05/09 09:13:05;;;;;;;47.13;23.42;;;16.40;99.90;;;;;;5133529;28;20043;-88
2023/05/09 09:15:35;;;;;;;44.50;24.23;;;16.50;99.90;;;;;;5130638;28;20039;-88
2023/05/09 09:18:08;;;;;;;41.60;23.58;;;16.70;99.90;;;;;;5134349;28;20559;-88
2023/05/09 09:20:41;;;;;;;43.63;25.05;;;16.80;99.90;;;;;;5117195;28;20040;-88
2023/05/09 09:23:11;;;;;;;40.90;24.30;;;17.00;99.90;;;;;;5134291;28;20399;-88
2023/05/09 09:25:38;;;;;;;40.60;23.90;;;17.10;99.90;;;;;;5148883;27;20039;-88
2023/05/09 09:28:05;;;;;;;40.33;23.63;;;17.20;99.90;;;;;;5110420;28;20055;-88
2023/05/09 09:30:31;;;;;;;44.33;23.65;;;17.40;99.90;;;;;;5142491;27;20066;-88
2023/05/09 09:32:59;;;;;;;38.17;21.80;;;17.50;99.90;;;;;;5102371;28;20071;-88
2023/05/09 09:35:25;;;;;;;36.25;21.98;;;17.60;99.90;;;;;;5117994;28;20114;-88
2023/05/09 09:38:00;;;;;;;38.30;23.05;;;17.60;99.90;;;;;;5116581;28;20164;-87
2023/05/09 09:40:27;;;;;;;35.88;21.95;;;17.70;99.90;;;;;;5133564;28;20825;-88
2023/05/09 09:42:53;;;;;;;38.30;22.75;;;17.80;99.90;;;;;;5116535;28;20082;-88
2023/05/09 09:45:20;;;;;;;37.40;22.63;;;17.80;99.90;;;;;;5116851;27;20039;-89
2023/05/09 09:47:51;;;;;;;36.55;21.50;;;17.80;99.90;;;;;;5116419;28;20035;-88
2023/05/09 09:50:21;;;;;;;34.45;21.65;;;17.80;99.90;;;;;;5133841;28;20122;-88
2023/05/09 09:52:54;;;;;;;41.72;22.80;;;17.80;99.90;;;;;;5116939;28;20050;-88
2023/05/09 09:55:22;;;;;;;38.33;23.33;;;17.80;99.90;;;;;;5133220;28;20488;-88
2023/05/09 09:57:50;;;;;;;40.00;23.02;;;17.70;99.90;;;;;;5119732;28;20136;-86
2023/05/09 10:00:27;;;;;;;41.83;23.52;;;17.60;99.90;;;;;;5117472;28;20039;-88
2023/05/09 10:02:56;;;;;;;39.88;23.20;;;17.50;99.90;;;;;;5116254;28;20035;-87
2023/05/09 10:05:27;;;;;;;45.47;22.45;;;17.40;99.90;;;;;;5133157;28;20050;-87
2023/05/09 10:08:03;;;;;;;38.25;21.85;;;17.40;99.90;;;;;;5164595;27;20150;-87
2023/05/09 10:10:31;;;;;;;39.53;22.27;;;17.30;99.90;;;;;;5153143;27;20510;-87
2023/05/09 10:13:03;;;;;;;41.75;23.08;;;17.30;99.90;;;;;;5153286;27;20126;-87
2023/05/09 10:15:31;;;;;;;43.40;22.70;;;17.20;99.90;;;;;;5153371;27;20076;-87
2023/05/09 10:17:59;;;;;;;41.10;22.58;;;17.10;99.90;;;;;;5136127;27;20501;-88
2023/05/09 10:20:27;;;;;;;37.03;22.70;;;17.10;99.90;;;;;;5153369;27;20112;-86
2023/05/09 10:22:57;;;;;;;43.22;22.65;;;17.00;99.90;;;;;;5135921;27;20069;-90
2023/05/09 10:25:38;;;;;;;41.10;23.23;;;17.00;99.90;;;;;;5152947;27;20100;-90
2023/05/09 10:28:13;;;;;;;37.92;22.35;;;16.90;99.90;;;;;;5152850;27;20074;-89
2023/05/09 10:31:04;;;;;;;44.53;23.02;;;16.90;99.90;;;;;;5169721;27;20459;-90
2023/05/09 10:33:37;;;;;;;39.80;22.63;;;16.90;99.90;;;;;;5170346;27;20040;-89
2023/05/09 10:36:06;;;;;;;44.67;24.30;;;17.00;99.90;;;;;;5153393;27;20051;-87
2023/05/09 10:38:34;;;;;;;46.08;23.67;;;17.00;99.90;;;;;;5135759;27;20533;-88
2023/05/09 10:41:02;;;;;;;44.92;24.08;;;17.10;99.90;;;;;;5136647;28;20488;-87
2023/05/09 10:43:30;;;;;;;43.83;23.67;;;17.20;99.90;;;;;;5115314;28;20037;-88
2023/05/09 10:45:57;;;;;;;48.33;24.83;;;17.10;99.90;;;;;;5115310;28;20079;-87
2023/05/09 10:48:26;;;;;;;45.20;24.35;;;17.20;99.90;;;;;;5106911;27;20426;-86
2023/05/09 10:50:54;;;;;;;44.60;24.17;;;17.30;99.90;;;;;;5131736;28;20047;-86
2023/05/09 10:53:23;;;;;;;45.78;24.95;;;17.40;99.90;;;;;;5130670;28;20050;-84
2023/05/09 10:56:00;;;;;;;49.90;25.67;;;17.30;99.90;;;;;;5130794;28;20558;-84
2023/05/09 10:58:30;;;;;;;48.70;24.65;;;17.30;99.90;;;;;;5147359;28;20594;-84
2023/05/09 11:00:59;;;;;;;42.47;22.73;;;17.30;99.90;;;;;;5129939;28;20039;-84
2023/05/09 11:03:28;;;;;;;47.83;25.75;;;17.30;99.90;;;;;;5132932;28;20043;-84
2023/05/09 11:05:56;;;;;;;52.20;24.80;;;17.30;99.90;;;;;;5147190;28;20452;-85
2023/05/09 11:08:41;;;;;;;49.00;24.60;;;17.30;99.90;;;;;;5114258;28;20043;-84
2023/05/09 11:11:24;;;;;;;48.00;25.25;;;17.50;99.90;;;;;;5131118;28;20043;-85
2023/05/09 11:13:57;;;;;;;51.78;25.63;;;17.60;99.90;;;;;;5115439;28;20116;-83
2023/05/09 11:16:25;;;;;;;51.90;24.92;;;17.80;99.90;;;;;;5140143;28;20043;-85
2023/05/09 11:18:55;;;;;;;53.13;25.98;;;17.80;99.90;;;;;;5131382;28;20043;-84
2023/05/09 11:21:22;;;;;;;50.15;24.60;;;17.80;99.90;;;;;;5130295;28;20043;-84
2023/05/09 11:23:49;;;;;;;48.22;26.08;;;17.80;99.90;;;;;;5113752;28;20430;-84
2023/05/09 11:26:21;;;;;;;53.55;27.00;;;17.70;99.90;;;;;;5113789;28;20117;-84
2023/05/09 11:28:52;;;;;;;54.00;26.38;;;17.70;99.90;;;;;;5130435;28;20396;-84
2023/05/09 11:31:19;;;;;;;52.25;26.33;;;17.70;99.90;;;;;;5130454;28;20044;-84
2023/05/09 11:33:53;;;;;;;50.47;25.83;;;17.90;99.90;;;;;;5113175;28;20032;-84
2023/05/09 11:36:30;;;;;;;52.88;27.10;;;18.00;99.90;;;;;;5130859;28;20504;-84
2023/05/09 11:39:03;;;;;;;47.47;25.17;;;18.10;99.90;;;;;;5130013;28;20040;-84
2023/05/09 11:41:31;;;;;;;48.47;26.20;;;18.40;99.90;;;;;;5130474;28;20047;-84
2023/05/09 11:43:59;;;;;;;48.92;26.90;;;18.60;99.90;;;;;;5130551;28;20042;-85
2023/05/09 11:46:26;;;;;;;48.97;27.02;;;18.60;99.90;;;;;;5113087;28;20036;-85
2023/05/09 11:48:53;;;;;;;48.63;26.50;;;18.70;99.90;;;;;;5130102;28;20040;-84
2023/05/09 11:51:20;;;;;;;51.30;26.67;;;18.70;99.90;;;;;;5146664;28;20040;-85
2023/05/09 11:53:50;;;;;;;47.42;27.83;;;18.70;99.90;;;;;;5146737;28;20549;-84
2023/05/09 11:56:17;;;;;;;47.17;26.15;;;18.80;99.90;;;;;;5122288;28;20065;-84
2023/05/09 11:58:45;;;;;;;49.47;27.98;;;19.00;99.90;;;;;;5129762;28;20040;-84
2023/05/09 12:01:12;;;;;;;50.75;26.83;;;19.00;99.90;;;;;;5133005;28;20093;-84
2023/05/09 12:03:45;;;;;;;52.58;27.40;;;19.00;99.90;;;;;;5151110;28;20491;-85
2023/05/09 12:06:15;;;;;;;48.90;27.10;;;19.00;99.90;;;;;;5134637;28;20043;-85
2023/05/09 12:08:43;;;;;;;45.58;26.23;;;19.00;99.90;;;;;;5134208;28;20043;-85
2023/05/09 12:11:11;;;;;;;49.20;27.67;;;19.00;99.90;;;;;;5134395;28;20661;-85
2023/05/09 12:13:48;;;;;;;52.20;27.73;;;19.00;99.90;;;;;;5134276;28;20036;-85
2023/05/09 12:16:16;;;;;;;51.42;26.63;;;19.10;99.90;;;;;;5134462;28;20038;-85
2023/05/09 12:18:51;;;;;;;48.60;27.23;;;19.10;99.90;;;;;;5151088;28;20040;-85
2023/05/09 12:21:19;;;;;;;48.33;26.67;;;19.20;99.90;;;;;;5133954;28;20039;-85
2023/05/09 12:23:46;;;;;;;55.22;28.55;;;19.20;99.90;;;;;;5137020;27;20042;-84
2023/05/09 12:26:13;;;;;;;49.65;27.73;;;19.30;99.90;;;;;;5137906;27;20130;-84
2023/05/09 12:28:41;;;;;;;54.78;28.25;;;19.30;99.90;;;;;;5132933;28;20044;-86
2023/05/09 12:31:08;;;;;;;57.63;29.77;;;19.30;99.90;;;;;;5133410;28;20054;-85
2023/05/09 12:33:37;;;;;;;59.60;30.17;;;19.20;99.90;;;;;;5150902;28;20043;-86
2023/05/09 12:36:12;;;;;;;56.70;29.73;;;19.10;99.90;;;;;;5132744;28;20055;-85